createdAt,value
2023-04-14T00:00:13.963Z,4.19
2023-04-14T00:02:19.657Z,3.91
2023-04-14T00:04:22.637Z,4.05
2023-04-14T00:06:27.300Z,4.01
2023-04-14T00:08:30.075Z,1.71
2023-04-14T00:10:32.883Z,3.65
2023-04-14T00:12:35.691Z,4.08
2023-04-14T00:14:38.419Z,3.85
2023-04-14T00:16:42.831Z,4.07
2023-04-14T00:18:46.980Z,3.93
2023-04-14T00:20:49.819Z,4.04
2023-04-14T00:22:52.588Z,2.57
2023-04-14T00:24:55.389Z,3.83
2023-04-14T00:26:58.201Z,3.88
2023-04-14T00:29:01.280Z,4.04
2023-04-14T00:31:04.268Z,3.95
2023-04-14T00:33:07.847Z,4.07
2023-04-14T00:35:12.055Z,4.03
2023-04-14T00:37:14.818Z,3.86
2023-04-14T00:39:17.562Z,3.18
2023-04-14T00:41:20.315Z,3.03
2023-04-14T00:43:23.199Z,4.00
2023-04-14T00:45:27.348Z,3.39
2023-04-14T00:47:30.159Z,3.33
2023-04-14T00:49:32.959Z,3.87
2023-04-14T00:51:37.675Z,3.86
2023-04-14T00:53:41.545Z,3.96
2023-04-14T00:55:44.703Z,3.97
2023-04-14T00:57:48.056Z,3.05
2023-04-14T00:59:51.021Z,3.67
2023-04-14T01:01:55.907Z,3.99
2023-04-14T01:03:59.692Z,3.07
2023-04-14T01:06:03.613Z,3.91
2023-04-14T01:08:07.924Z,2.44
2023-04-14T01:10:11.856Z,3.94
2023-04-14T01:12:19.721Z,3.97
2023-04-14T01:14:34.060Z,3.74
2023-04-14T01:16:41.360Z,3.61
2023-04-14T01:18:54.574Z,4.13
2023-04-14T01:21:00.557Z,4.00
2023-04-14T01:23:08.156Z,4.16
2023-04-14T01:25:37.961Z,4.10
2023-04-14T01:27:50.835Z,4.24
2023-04-14T01:30:10.690Z,4.40
2023-04-14T01:32:20.505Z,3.66
2023-04-14T01:34:30.417Z,4.39
2023-04-14T01:36:41.437Z,4.04
2023-04-14T01:38:46.738Z,4.17
2023-04-14T01:40:53.592Z,4.18
2023-04-14T01:43:02.741Z,3.52
2023-04-14T01:45:22.932Z,3.53
2023-04-14T01:47:29.162Z,4.24
2023-04-14T01:49:37.334Z,3.14
2023-04-14T01:51:44.702Z,3.89
2023-04-14T01:53:50.599Z,4.20
2023-04-14T01:55:55.491Z,3.96
2023-04-14T01:57:59.082Z,4.12
2023-04-14T02:00:04.520Z,4.14
2023-04-14T02:02:18.673Z,4.12
2023-04-14T02:04:26.630Z,4.09
2023-04-14T02:06:31.796Z,3.95
2023-04-14T02:08:36.256Z,3.73
2023-04-14T02:10:41.611Z,3.71
2023-04-14T02:12:45.546Z,2.89
2023-04-14T02:14:51.091Z,3.84
2023-04-14T02:16:57.299Z,3.62
2023-04-14T02:19:01.586Z,3.93
2023-04-14T02:21:06.974Z,3.97
2023-04-14T02:23:10.009Z,2.65
2023-04-14T02:25:12.913Z,3.48
2023-04-14T02:27:20.040Z,3.23
2023-04-14T02:29:24.724Z,2.13
2023-04-14T02:31:31.315Z,3.29
2023-04-14T02:33:37.930Z,3.44
2023-04-14T02:35:47.291Z,2.88
2023-04-14T02:37:56.076Z,3.53
2023-04-14T02:40:04.469Z,3.47
2023-04-14T02:42:13.931Z,3.07
2023-04-14T02:44:20.564Z,3.55
2023-04-14T02:46:26.823Z,2.96
2023-04-14T02:48:30.813Z,3.27
2023-04-14T02:50:35.074Z,3.51
2023-04-14T02:52:51.414Z,3.48
2023-04-14T02:54:58.502Z,3.43
2023-04-14T02:57:02.262Z,3.39
2023-04-14T02:59:08.168Z,3.33
2023-04-14T03:01:17.237Z,2.62
2023-04-14T03:03:21.278Z,3.16
2023-04-14T03:05:25.613Z,2.97
2023-04-14T03:07:36.754Z,3.02
2023-04-14T03:09:41.348Z,2.92
2023-04-14T03:11:46.357Z,2.17
2023-04-14T03:13:53.535Z,2.22
2023-04-14T03:15:59.446Z,2.61
2023-04-14T03:18:05.448Z,2.63
2023-04-14T03:20:11.001Z,2.28
2023-04-14T03:22:15.468Z,2.72
2023-04-14T03:24:24.415Z,2.75
2023-04-14T03:26:33.076Z,2.70
2023-04-14T03:28:41.219Z,2.60
2023-04-14T03:30:49.163Z,2.44
2023-04-14T03:32:53.586Z,2.28
2023-04-14T03:34:59.228Z,1.68
2023-04-14T03:37:05.461Z,2.38
2023-04-14T03:39:14.504Z,2.20
2023-04-14T03:41:22.151Z,1.84
2023-04-14T03:43:27.270Z,1.75
2023-04-14T03:45:40.150Z,1.52
2023-04-14T03:47:44.160Z,0.44
2023-04-14T03:49:50.294Z,0.74
2023-04-14T03:51:55.771Z,1.10
2023-04-14T03:54:00.775Z,0.98
2023-04-14T03:56:06.467Z,1.26
2023-04-14T03:58:11.827Z,1.41
2023-04-14T04:00:16.781Z,1.20
2023-04-14T04:02:24.718Z,1.42
2023-04-14T04:04:28.588Z,1.47
2023-04-14T04:06:33.729Z,1.50
2023-04-14T04:08:37.994Z,1.51
2023-04-14T04:10:43.799Z,1.75
2023-04-14T04:12:48.849Z,1.98
2023-04-14T04:14:52.556Z,2.05
2023-04-14T04:16:57.016Z,2.17
2023-04-14T04:19:07.296Z,2.26
2023-04-14T04:21:11.608Z,2.43
2023-04-14T04:23:18.075Z,1.94
2023-04-14T04:25:21.269Z,2.66
2023-04-14T04:27:34.685Z,2.51
2023-04-14T04:29:45.187Z,2.53
2023-04-14T04:31:48.557Z,2.61
2023-04-14T04:33:52.506Z,2.11
2023-04-14T04:35:58.629Z,2.76
2023-04-14T04:38:11.310Z,2.82
2023-04-14T04:40:16.880Z,1.95
2023-04-14T04:42:20.231Z,2.88
2023-04-14T04:44:23.009Z,2.97
2023-04-14T04:46:54.320Z,3.01
2023-04-14T04:49:01.131Z,2.89
2023-04-14T04:51:05.471Z,2.54
2023-04-14T04:53:08.193Z,2.67
2023-04-14T04:55:11.688Z,2.61
2023-04-14T04:57:14.465Z,2.56
2023-04-14T04:59:17.471Z,2.53
2023-04-14T05:01:20.363Z,1.64
2023-04-14T05:03:23.203Z,2.44
2023-04-14T05:05:26.103Z,2.44
2023-04-14T05:07:30.193Z,2.43
2023-04-14T05:09:33.024Z,2.44
2023-04-14T05:11:36.150Z,2.48
2023-04-14T05:13:39.027Z,2.50
2023-04-14T05:15:42.100Z,2.53
2023-04-14T05:17:44.943Z,1.91
2023-04-14T05:19:47.734Z,2.51
2023-04-14T05:21:50.508Z,2.49
2023-04-14T05:23:54.629Z,2.45
2023-04-14T05:26:07.245Z,2.51
2023-04-14T05:28:20.357Z,2.52
2023-04-14T05:30:23.312Z,2.44
2023-04-14T05:32:28.987Z,2.20
2023-04-14T05:34:32.143Z,2.14
2023-04-14T05:36:34.898Z,2.49
2023-04-14T05:38:40.134Z,2.50
2023-04-14T05:40:44.469Z,2.34
2023-04-14T05:42:47.328Z,1.73
2023-04-14T05:44:50.089Z,2.53
2023-04-14T05:46:52.983Z,1.97
2023-04-14T05:48:56.861Z,2.32
2023-04-14T05:50:59.672Z,2.38
2023-04-14T05:53:02.637Z,2.06
2023-04-14T05:55:06.114Z,2.66
2023-04-14T05:57:10.207Z,2.52
2023-04-14T05:59:13.155Z,2.43
2023-04-14T06:01:16.453Z,2.82
2023-04-14T06:03:19.419Z,2.57
2023-04-14T06:05:24.294Z,2.85
2023-04-14T06:07:27.235Z,3.03
2023-04-14T06:09:30.003Z,2.72
2023-04-14T06:11:32.952Z,3.19
2023-04-14T06:13:37.047Z,3.23
2023-04-14T06:15:39.806Z,3.37
2023-04-14T06:17:42.588Z,3.40
2023-04-14T06:19:46.877Z,3.46
2023-04-14T06:21:49.645Z,3.50
2023-04-14T06:23:52.416Z,3.63
2023-04-14T06:25:55.624Z,3.70
2023-04-14T06:27:58.426Z,3.75
2023-04-14T06:30:02.874Z,3.88
2023-04-14T06:32:05.746Z,3.94
2023-04-14T06:34:08.548Z,3.97
2023-04-14T06:36:11.365Z,4.00
2023-04-14T06:38:14.151Z,4.11
2023-04-14T06:40:16.984Z,4.02
2023-04-14T06:42:19.722Z,4.30
2023-04-14T06:44:23.708Z,4.44
2023-04-14T06:46:28.025Z,4.58
2023-04-14T06:48:30.866Z,4.70
2023-04-14T06:50:33.655Z,4.88
2023-04-14T06:52:36.498Z,4.89
2023-04-14T06:54:39.285Z,4.91
2023-04-14T06:56:42.073Z,5.02
2023-04-14T06:58:44.858Z,5.18
2023-04-14T07:00:47.663Z,4.66
2023-04-14T07:02:51.869Z,5.29
2023-04-14T07:04:54.800Z,5.23
2023-04-14T07:07:00.750Z,4.97
2023-04-14T07:09:03.557Z,5.28
2023-04-14T07:11:08.763Z,5.62
2023-04-14T07:13:11.588Z,5.67
2023-04-14T07:15:15.399Z,5.71
2023-04-14T07:17:18.579Z,5.79
2023-04-14T07:19:22.682Z,5.87
2023-04-14T07:21:25.488Z,5.93
2023-04-14T07:23:28.905Z,6.05
2023-04-14T07:25:31.684Z,6.20
2023-04-14T07:27:34.492Z,6.23
2023-04-14T07:29:37.421Z,6.35
2023-04-14T07:31:40.302Z,5.76
2023-04-14T07:33:43.087Z,6.44
2023-04-14T07:36:00.683Z,6.55
2023-04-14T07:38:04.552Z,6.71
2023-04-14T07:40:08.928Z,6.82
2023-04-14T07:42:12.602Z,6.88
2023-04-14T07:44:15.381Z,6.90
2023-04-14T07:46:18.269Z,6.92
2023-04-14T07:48:21.544Z,6.95
2023-04-14T07:50:24.703Z,7.00
2023-04-14T07:52:28.986Z,7.14
2023-04-14T07:54:32.079Z,7.24
2023-04-14T07:56:34.903Z,7.36
2023-04-14T07:58:37.821Z,6.73
2023-04-14T08:00:40.574Z,7.39
2023-04-14T08:02:43.856Z,7.48
2023-04-14T08:04:46.813Z,7.63
2023-04-14T08:06:49.550Z,7.78
2023-04-14T08:08:53.708Z,7.07
2023-04-14T08:10:56.495Z,8.00
2023-04-14T08:13:00.190Z,7.95
2023-04-14T08:15:04.818Z,8.17
2023-04-14T08:17:07.583Z,8.27
2023-04-14T08:19:10.476Z,8.45
2023-04-14T08:21:13.267Z,8.62
2023-04-14T08:23:16.183Z,6.83
2023-04-14T08:25:20.377Z,8.93
2023-04-14T08:27:23.146Z,9.06
2023-04-14T08:29:26.344Z,9.15
2023-04-14T08:31:29.196Z,8.85
2023-04-14T08:33:33.794Z,9.17
2023-04-14T08:35:41.497Z,8.93
2023-04-14T08:37:46.225Z,9.22
2023-04-14T08:39:48.990Z,9.41
2023-04-14T08:41:54.225Z,8.31
2023-04-14T08:43:57.198Z,10.13
2023-04-14T08:46:02.052Z,10.31
2023-04-14T08:48:05.910Z,10.21
2023-04-14T08:50:14.405Z,10.42
2023-04-14T08:52:21.952Z,10.53
2023-04-14T08:54:25.816Z,10.32
2023-04-14T08:56:32.954Z,10.60
2023-04-14T08:58:37.138Z,10.88
2023-04-14T09:00:41.111Z,10.05
2023-04-14T09:02:44.538Z,10.68
2023-04-14T09:04:47.978Z,11.14
2023-04-14T09:06:50.897Z,11.35
2023-04-14T09:08:54.095Z,11.28
2023-04-14T09:10:56.896Z,11.28
2023-04-14T09:13:01.384Z,11.25
2023-04-14T09:15:06.932Z,11.34
2023-04-14T09:17:10.172Z,10.66
2023-04-14T09:19:13.009Z,11.68
2023-04-14T09:21:30.335Z,11.91
2023-04-14T09:23:41.813Z,12.03
2023-04-14T09:25:44.701Z,12.19
2023-04-14T09:27:48.983Z,12.27
2023-04-14T09:29:52.704Z,12.53
2023-04-14T09:31:57.117Z,12.75
2023-04-14T09:34:00.197Z,12.81
2023-04-14T09:36:03.133Z,12.93
2023-04-14T09:38:08.007Z,13.01
2023-04-14T09:40:11.970Z,13.10
2023-04-14T09:42:14.753Z,13.30
2023-04-14T09:44:17.555Z,13.41
2023-04-14T09:46:20.529Z,13.48
2023-04-14T09:48:25.348Z,13.58
2023-04-14T09:50:28.169Z,13.80
2023-04-14T09:52:39.170Z,13.42
2023-04-14T09:54:43.070Z,13.44
2023-04-14T09:56:46.882Z,13.90
2023-04-14T09:58:50.400Z,14.46
2023-04-14T10:00:53.264Z,14.56
2023-04-14T10:02:59.122Z,14.43
2023-04-14T10:05:07.513Z,14.64
2023-04-14T10:07:12.217Z,14.95
2023-04-14T10:09:21.907Z,15.11
2023-04-14T10:11:26.221Z,15.36
2023-04-14T10:13:29.016Z,14.91
2023-04-14T10:15:31.962Z,15.27
2023-04-14T10:17:34.812Z,15.11
2023-04-14T10:19:39.025Z,15.06
2023-04-14T10:21:43.293Z,14.88
2023-04-14T10:23:47.238Z,14.78
2023-04-14T10:25:51.416Z,14.60
2023-04-14T10:27:54.469Z,14.02
2023-04-14T10:29:57.442Z,13.46
2023-04-14T10:32:05.463Z,13.66
2023-04-14T10:34:10.846Z,13.70
2023-04-14T10:36:14.092Z,12.91
2023-04-14T10:38:18.433Z,12.47
2023-04-14T10:40:23.078Z,12.69
2023-04-14T10:42:26.926Z,12.03
2023-04-14T10:44:31.671Z,12.06
2023-04-14T10:46:44.453Z,12.54
2023-04-14T10:48:49.869Z,12.95
2023-04-14T10:50:56.700Z,13.14
2023-04-14T10:53:00.401Z,13.07
2023-04-14T10:55:11.608Z,13.23
2023-04-14T10:57:15.540Z,13.24
2023-04-14T10:59:18.385Z,12.69
2023-04-14T11:01:31.127Z,12.27
2023-04-14T11:03:45.343Z,11.98
2023-04-14T11:05:50.713Z,11.64
2023-04-14T11:08:00.801Z,10.46
2023-04-14T11:10:28.383Z,12.09
2023-04-14T11:12:31.491Z,12.57
2023-04-14T11:14:36.400Z,13.12
2023-04-14T11:16:44.649Z,12.90
2023-04-14T11:18:55.591Z,13.54
2023-04-14T11:21:04.279Z,13.94
2023-04-14T11:23:07.069Z,14.45
2023-04-14T11:25:13.089Z,14.95
2023-04-14T11:27:17.924Z,15.15
2023-04-14T11:29:20.775Z,15.82
2023-04-14T11:31:28.166Z,16.58
2023-04-14T11:33:32.524Z,17.13
2023-04-14T11:35:35.520Z,16.86
2023-04-14T11:37:38.333Z,16.32
2023-04-14T11:39:41.371Z,17.13
2023-04-14T11:41:47.576Z,17.51
2023-04-14T11:43:51.806Z,17.63
2023-04-14T11:45:54.736Z,17.33
2023-04-14T11:47:59.318Z,17.47
2023-04-14T11:50:07.143Z,17.77
2023-04-14T11:52:09.987Z,18.04
2023-04-14T11:54:13.669Z,18.42
2023-04-14T11:56:17.324Z,18.84
2023-04-14T11:58:23.774Z,18.93
2023-04-14T12:00:28.571Z,19.12
2023-04-14T12:02:31.422Z,18.97
2023-04-14T12:04:34.818Z,19.10
2023-04-14T12:06:39.096Z,19.05
2023-04-14T12:08:41.917Z,18.73
2023-04-14T12:10:46.790Z,19.25
2023-04-14T12:12:49.556Z,19.68
2023-04-14T12:14:52.448Z,19.69
2023-04-14T12:16:56.717Z,19.99
2023-04-14T12:18:59.832Z,19.79
2023-04-14T12:21:05.940Z,20.35
2023-04-14T12:23:10.270Z,20.47
2023-04-14T12:25:13.882Z,20.43
2023-04-14T12:27:19.672Z,21.03
2023-04-14T12:29:22.903Z,21.36
2023-04-14T12:31:30.432Z,21.46
2023-04-14T12:33:35.198Z,21.67
2023-04-14T12:35:37.952Z,21.42
2023-04-14T12:37:41.532Z,20.57
2023-04-14T12:39:51.972Z,20.78
2023-04-14T12:41:55.570Z,19.72
2023-04-14T12:43:58.628Z,21.04
2023-04-14T12:46:03.722Z,20.33
2023-04-14T12:48:06.979Z,21.27
2023-04-14T12:50:29.087Z,22.04
2023-04-14T12:52:38.075Z,22.03
2023-04-14T12:54:48.770Z,20.90
2023-04-14T12:56:51.554Z,19.36
2023-04-14T12:58:55.313Z,19.06
2023-04-14T13:00:58.120Z,19.05
2023-04-14T13:03:01.037Z,19.03
2023-04-14T13:05:04.092Z,19.65
2023-04-14T13:07:08.219Z,20.02
2023-04-14T13:09:11.593Z,20.36
2023-04-14T13:11:14.697Z,20.14
2023-04-14T13:13:17.494Z,20.52
2023-04-14T13:15:27.883Z,21.01
2023-04-14T13:17:43.130Z,20.72
2023-04-14T13:19:46.066Z,21.32
2023-04-14T13:21:48.825Z,21.49
2023-04-14T13:23:52.925Z,21.60
2023-04-14T13:25:56.106Z,20.42
2023-04-14T13:27:58.866Z,19.49
2023-04-14T13:30:02.429Z,19.78
2023-04-14T13:32:09.696Z,20.85
2023-04-14T13:34:12.508Z,19.80
2023-04-14T13:36:15.644Z,19.15
2023-04-14T13:38:18.655Z,17.96
2023-04-14T13:40:22.846Z,18.35
2023-04-14T13:42:25.603Z,17.87
2023-04-14T13:44:28.852Z,19.48
2023-04-14T13:46:40.288Z,19.66
2023-04-14T13:48:44.128Z,18.09
2023-04-14T13:50:47.444Z,20.01
2023-04-14T13:52:50.277Z,20.37
2023-04-14T13:54:53.119Z,19.43
2023-04-14T13:56:57.707Z,17.66
2023-04-14T13:59:00.915Z,19.54
2023-04-14T14:01:10.855Z,20.43
2023-04-14T14:03:13.742Z,21.37
2023-04-14T14:05:16.885Z,20.50
2023-04-14T14:07:19.665Z,18.88
2023-04-14T14:09:22.463Z,17.67
2023-04-14T14:11:25.244Z,18.40
2023-04-14T14:13:29.625Z,18.13
2023-04-14T14:15:32.476Z,17.94
2023-04-14T14:17:36.782Z,18.35
2023-04-14T14:19:40.002Z,17.86
2023-04-14T14:21:43.961Z,17.20
2023-04-14T14:23:47.267Z,17.46
2023-04-14T14:25:50.153Z,19.01
2023-04-14T14:27:53.068Z,20.15
2023-04-14T14:29:57.238Z,20.43
2023-04-14T14:32:00.049Z,17.84
2023-04-14T14:34:02.983Z,17.68
2023-04-14T14:36:06.909Z,18.90
2023-04-14T14:38:09.694Z,19.32
2023-04-14T14:40:13.676Z,19.44
2023-04-14T14:42:16.433Z,19.92
2023-04-14T14:44:19.208Z,17.76
2023-04-14T14:46:23.908Z,17.67
2023-04-14T14:48:26.696Z,17.54
2023-04-14T14:50:29.436Z,17.11
2023-04-14T14:52:34.437Z,16.73
2023-04-14T14:54:37.654Z,17.70
2023-04-14T14:56:40.546Z,18.62
2023-04-14T14:58:43.408Z,18.89
2023-04-14T15:00:46.762Z,18.68
2023-04-14T15:02:51.236Z,15.88
2023-04-14T15:04:54.608Z,14.94
2023-04-14T15:06:57.459Z,15.04
2023-04-14T15:09:00.660Z,14.90
2023-04-14T15:11:03.535Z,15.83
2023-04-14T15:13:07.324Z,16.27
2023-04-14T15:15:10.878Z,15.86
2023-04-14T15:17:13.661Z,15.59
2023-04-14T15:19:17.762Z,15.57
2023-04-14T15:21:20.608Z,16.18
2023-04-14T15:23:23.360Z,16.03
2023-04-14T15:25:26.173Z,16.01
2023-04-14T15:27:28.871Z,14.83
2023-04-14T15:29:31.702Z,15.15
2023-04-14T15:31:34.640Z,14.73
2023-04-14T15:33:37.388Z,13.59
2023-04-14T15:35:42.136Z,14.16
2023-04-14T15:37:45.030Z,14.09
2023-04-14T15:39:47.778Z,14.92
2023-04-14T15:41:51.329Z,14.78
2023-04-14T15:43:54.118Z,15.97
2023-04-14T15:45:56.942Z,15.94
2023-04-14T15:47:59.802Z,16.18
2023-04-14T15:50:09.830Z,15.61
2023-04-14T15:52:14.890Z,15.99
2023-04-14T15:54:17.716Z,16.26
2023-04-14T15:56:23.055Z,16.95
2023-04-14T15:58:27.334Z,14.58
2023-04-14T16:00:30.146Z,16.40
2023-04-14T16:02:35.519Z,15.75
2023-04-14T16:04:38.480Z,15.32
2023-04-14T16:06:41.341Z,15.01
2023-04-14T16:08:45.525Z,15.55
2023-04-14T16:10:48.832Z,14.82
2023-04-14T16:12:51.598Z,15.18
2023-04-14T16:14:54.945Z,15.27
2023-04-14T16:16:57.691Z,14.86
2023-04-14T16:19:00.770Z,14.93
2023-04-14T16:21:03.850Z,14.98
2023-04-14T16:23:06.608Z,14.92
2023-04-14T16:25:11.265Z,14.22
2023-04-14T16:27:14.030Z,14.29
2023-04-14T16:29:16.797Z,13.89
2023-04-14T16:31:19.635Z,13.49
2023-04-14T16:33:22.363Z,12.03
2023-04-14T16:35:25.740Z,13.43
2023-04-14T16:37:28.498Z,14.05
2023-04-14T16:39:31.646Z,15.45
2023-04-14T16:41:36.204Z,16.91
2023-04-14T16:43:38.929Z,17.86
2023-04-14T16:45:41.958Z,16.83
2023-04-14T16:47:44.755Z,16.74
2023-04-14T16:49:50.046Z,16.66
2023-04-14T16:51:52.803Z,16.06
2023-04-14T16:53:57.042Z,16.61
2023-04-14T16:56:04.326Z,18.63
2023-04-14T16:58:09.612Z,17.88
2023-04-14T17:00:13.792Z,17.78
2023-04-14T17:02:16.679Z,17.40
2023-04-14T17:04:19.828Z,17.51
2023-04-14T17:06:22.794Z,17.00
2023-04-14T17:08:25.583Z,17.29
2023-04-14T17:10:29.691Z,17.68
2023-04-14T17:12:32.727Z,17.79
2023-04-14T17:14:37.313Z,17.94
2023-04-14T17:16:40.201Z,17.90
2023-04-14T17:18:43.981Z,18.13
2023-04-14T17:20:47.051Z,17.36
2023-04-14T17:22:51.283Z,18.04
2023-04-14T17:24:55.676Z,18.47
2023-04-14T17:26:58.441Z,18.21
2023-04-14T17:29:01.382Z,18.16
2023-04-14T17:31:12.618Z,18.98
2023-04-14T17:33:16.798Z,17.97
2023-04-14T17:35:19.990Z,17.38
2023-04-14T17:37:23.177Z,16.99
2023-04-14T17:39:27.688Z,16.52
2023-04-14T17:41:30.882Z,15.12
2023-04-14T17:43:37.850Z,14.04
2023-04-14T17:45:43.796Z,14.16
2023-04-14T17:47:47.937Z,14.44
2023-04-14T17:49:51.150Z,13.53
2023-04-14T17:51:56.219Z,12.62
2023-04-14T17:53:59.497Z,12.66
2023-04-14T17:56:02.462Z,12.94
2023-04-14T17:58:05.821Z,12.68
2023-04-14T18:00:11.093Z,12.24
2023-04-14T18:02:16.830Z,12.32
2023-04-14T18:04:21.327Z,12.15
2023-04-14T18:06:24.273Z,10.40
2023-04-14T18:08:27.029Z,11.24
2023-04-14T18:10:29.863Z,11.27
2023-04-14T18:12:33.350Z,10.68
2023-04-14T18:14:36.699Z,10.89
2023-04-14T18:16:39.519Z,10.95
2023-04-14T18:18:42.351Z,10.94
2023-04-14T18:20:50.103Z,10.85
2023-04-14T18:22:54.123Z,10.58
2023-04-14T18:24:56.903Z,10.15
2023-04-14T18:26:59.813Z,10.42
2023-04-14T18:29:02.820Z,9.96
2023-04-14T18:31:06.553Z,10.23
2023-04-14T18:33:09.351Z,10.10
2023-04-14T18:35:12.987Z,10.06
2023-04-14T18:37:17.104Z,9.84
2023-04-14T18:39:20.764Z,9.19
2023-04-14T18:41:23.565Z,8.78
2023-04-14T18:43:26.409Z,9.64
2023-04-14T18:45:29.186Z,9.39
2023-04-14T18:47:32.055Z,9.42
2023-04-14T18:49:35.341Z,9.72
2023-04-14T18:51:38.130Z,9.50
2023-04-14T18:53:44.008Z,9.58
2023-04-14T18:55:48.345Z,9.40
2023-04-14T18:57:52.794Z,9.24
2023-04-14T18:59:55.752Z,9.13
2023-04-14T19:01:59.558Z,8.65
2023-04-14T19:04:03.070Z,8.62
2023-04-14T19:06:06.180Z,8.77
2023-04-14T19:08:08.981Z,8.77
2023-04-14T19:10:13.132Z,9.12
2023-04-14T19:14:24.397Z,9.25
2023-04-14T19:16:27.585Z,9.38
2023-04-14T19:18:30.403Z,9.25
2023-04-14T19:20:33.607Z,8.74
2023-04-14T19:22:36.336Z,9.01
2023-04-14T19:24:39.153Z,7.69
2023-04-14T19:26:43.250Z,8.87
2023-04-14T19:28:46.052Z,8.96
2023-04-14T19:30:48.855Z,8.85
2023-04-14T19:32:53.364Z,8.75
2023-04-14T19:34:56.369Z,8.83
2023-04-14T19:36:59.131Z,8.23
2023-04-14T19:39:02.025Z,8.67
2023-04-14T19:41:05.045Z,8.33
2023-04-14T19:43:09.101Z,8.53
2023-04-14T19:45:12.215Z,8.66
2023-04-14T19:47:14.921Z,8.50
2023-04-14T19:49:17.670Z,8.59
2023-04-14T19:51:21.340Z,8.44
2023-04-14T19:53:24.914Z,8.51
2023-04-14T19:55:27.693Z,8.28
2023-04-14T19:57:30.538Z,8.49
2023-04-14T19:59:34.666Z,8.64
2023-04-14T20:01:37.607Z,8.82
2023-04-14T20:04:04.999Z,7.85
2023-04-14T20:06:03.706Z,8.44
2023-04-14T20:08:07.057Z,8.26
2023-04-14T20:10:10.767Z,8.14
2023-04-14T20:12:14.472Z,8.22
2023-04-14T20:14:17.953Z,8.22
2023-04-14T20:16:26.957Z,8.35
2023-04-14T20:18:30.693Z,8.18
2023-04-14T20:20:33.715Z,8.36
2023-04-14T20:22:36.969Z,8.22
2023-04-14T20:24:39.798Z,8.26
2023-04-14T20:26:43.632Z,8.42
2023-04-14T20:28:47.473Z,8.32
2023-04-14T20:30:52.667Z,7.69
2023-04-14T20:32:56.900Z,8.07
2023-04-14T20:35:00.193Z,8.09
2023-04-14T20:37:02.959Z,8.07
2023-04-14T20:39:06.430Z,7.82
2023-04-14T20:41:09.161Z,7.91
2023-04-14T20:43:12.044Z,8.04
2023-04-14T20:45:14.862Z,7.99
2023-04-14T20:47:17.699Z,7.85
2023-04-14T20:49:22.184Z,7.99
2023-04-14T20:51:25.212Z,8.02
2023-04-14T20:53:29.988Z,8.06
2023-04-14T20:55:32.834Z,7.67
2023-04-14T20:57:35.581Z,7.80
2023-04-14T20:59:38.317Z,7.94
2023-04-14T21:01:42.678Z,7.97
2023-04-14T21:03:45.590Z,7.82
2023-04-14T21:05:49.743Z,4.11
2023-04-14T21:07:52.734Z,7.02
2023-04-14T21:09:55.508Z,7.03
2023-04-14T21:12:14.720Z,7.71
2023-04-14T21:15:40.489Z,7.64
2023-04-14T21:16:41.827Z,7.54
2023-04-14T21:18:44.704Z,7.50
2023-04-14T21:20:48.816Z,7.53
2023-04-14T21:22:52.175Z,7.39
2023-04-14T21:24:55.074Z,6.75
2023-04-14T21:26:58.016Z,7.41
2023-04-14T21:29:01.113Z,7.16
2023-04-14T21:31:04.569Z,6.84
2023-04-14T21:33:08.782Z,7.13
2023-04-14T21:35:21.302Z,7.24
2023-04-14T21:37:25.557Z,7.19
2023-04-14T21:39:29.941Z,7.27
2023-04-14T21:41:33.096Z,7.17
2023-04-14T21:43:36.284Z,7.07
2023-04-14T21:45:39.293Z,6.81
2023-04-14T21:47:42.727Z,6.76
2023-04-14T21:49:45.596Z,7.04
2023-04-14T21:51:48.452Z,7.16
2023-04-14T21:53:52.667Z,7.23
2023-04-14T21:56:08.737Z,7.29
2023-04-14T21:58:13.606Z,7.28
2023-04-14T22:00:17.428Z,7.32
2023-04-14T22:02:20.502Z,7.33
2023-04-14T22:04:35.331Z,7.26
2023-04-14T22:06:39.549Z,7.28
2023-04-14T22:08:42.357Z,7.28
2023-04-14T22:10:47.387Z,7.27
2023-04-14T22:12:50.641Z,7.21
2023-04-14T22:14:53.783Z,7.21
2023-04-14T22:16:56.614Z,7.19
2023-04-14T22:18:59.579Z,7.10
2023-04-14T22:21:03.069Z,6.89
2023-04-14T22:23:05.940Z,6.96
2023-04-14T22:25:11.538Z,6.97
2023-04-14T22:27:15.687Z,6.93
2023-04-14T22:29:18.731Z,6.91
2023-04-14T22:31:21.793Z,6.84
2023-04-14T22:33:24.596Z,6.76
2023-04-14T22:35:27.442Z,5.66
2023-04-14T22:37:30.199Z,3.94
2023-04-14T22:39:32.962Z,6.76
2023-04-14T22:41:35.835Z,5.58
2023-04-14T22:43:39.896Z,6.30
2023-04-14T22:45:42.609Z,6.32
2023-04-14T22:47:45.615Z,6.50
2023-04-14T22:49:48.533Z,6.48
2023-04-14T22:51:51.745Z,6.47
2023-04-14T22:53:54.466Z,6.37
2023-04-14T22:55:58.193Z,6.07
2023-04-14T22:58:01.046Z,6.36
2023-04-14T23:00:09.060Z,6.37
2023-04-14T23:02:12.710Z,5.92
2023-04-14T23:04:15.643Z,6.39
2023-04-14T23:06:19.844Z,6.38
2023-04-14T23:08:22.544Z,5.57
2023-04-14T23:10:25.438Z,6.24
2023-04-14T23:12:28.396Z,5.97
2023-04-14T23:14:32.287Z,6.22
2023-04-14T23:16:36.554Z,6.09
2023-04-14T23:18:40.009Z,5.85
2023-04-14T23:20:43.165Z,5.82
2023-04-14T23:22:45.917Z,6.06
2023-04-14T23:24:50.175Z,6.08
2023-04-14T23:26:52.895Z,5.73
2023-04-14T23:28:55.763Z,5.46
2023-04-14T23:30:58.808Z,5.00
2023-04-14T23:33:03.029Z,5.14
2023-04-14T23:35:06.915Z,4.37
2023-04-14T23:37:09.645Z,5.41
2023-04-14T23:39:12.587Z,5.11
2023-04-14T23:41:15.609Z,5.54
2023-04-14T23:43:18.304Z,5.55
2023-04-14T23:45:21.065Z,4.52
2023-04-14T23:47:23.866Z,5.55
2023-04-14T23:49:34.849Z,5.56
2023-04-14T23:51:38.514Z,5.44
2023-04-14T23:53:41.598Z,5.61
2023-04-14T23:55:44.585Z,4.98
2023-04-14T23:57:47.321Z,5.48
2023-04-14T23:59:50.010Z,5.39
